Amo, Colorado
Current Conditions -  °F | °C
As of 5:56 AM on Friday 28 Nov 2014 (Local Time) from KSHM Reporting Station
Clear Clear  
Wind Chill: 51°   Ceiling: Unl
Heat Index: 51°   Visibility: 10mi
Dew Point:   Wind: 3mph
Humidity: 18%   Direction: 190°S
Pressure: 30.07"   Gusts: NA
Location:  39.0051°N, 104.503°W
Report Text: KSHM 281256Z AUTO 19003KT 10SM CLR 11/M13 A3007 RMK AO2 SLP144 T01081126
Loading
Personal Weather Stations






























Interactive Weather Map New forecast layout! Learn more

10-Day Weather Forecast

Advertisements
Track Severe Weather on mobile